sensor_id;sensor_type;location;lat;lon;timestamp;pressure;altitude;pressure_sealevel;temperature;humidity
80693;BME280;70055;39.436;-77.514;2023-08-01T00:02:25;99542.63;;;22.79;39.29
80693;BME280;70055;39.436;-77.514;2023-08-01T00:04:53;99547.20;;;22.16;41.66
80693;BME280;70055;39.436;-77.514;2023-08-01T00:07:21;99555.32;;;21.21;44.30
80693;BME280;70055;39.436;-77.514;2023-08-01T00:09:49;99553.27;;;20.66;45.48
80693;BME280;70055;39.436;-77.514;2023-08-01T00:12:17;99553.63;;;20.43;44.56
80693;BME280;70055;39.436;-77.514;2023-08-01T00:14:46;99554.31;;;20.66;43.69
80693;BME280;70055;39.436;-77.514;2023-08-01T00:17:14;99555.77;;;20.67;43.30
80693;BME280;70055;39.436;-77.514;2023-08-01T00:19:43;99558.09;;;20.56;43.99
80693;BME280;70055;39.436;-77.514;2023-08-01T00:22:10;99563.82;;;21.21;42.50
80693;BME280;70055;39.436;-77.514;2023-08-01T00:24:39;99567.36;;;21.03;42.18
80693;BME280;70055;39.436;-77.514;2023-08-01T00:27:07;99569.60;;;20.97;42.33
80693;BME280;70055;39.436;-77.514;2023-08-01T00:29:35;99571.75;;;20.63;43.84
80693;BME280;70055;39.436;-77.514;2023-08-01T00:32:04;99577.41;;;20.36;44.06
80693;BME280;70055;39.436;-77.514;2023-08-01T00:34:33;99576.93;;;20.75;43.01
80693;BME280;70055;39.436;-77.514;2023-08-01T00:37:01;99572.16;;;20.80;42.15
80693;BME280;70055;39.436;-77.514;2023-08-01T00:39:29;99579.51;;;20.11;42.49
80693;BME280;70055;39.436;-77.514;2023-08-01T00:41:58;99580.70;;;20.62;41.74
80693;BME280;70055;39.436;-77.514;2023-08-01T00:44:26;99582.32;;;20.75;41.90
80693;BME280;70055;39.436;-77.514;2023-08-01T00:46:54;99581.87;;;20.66;41.09
80693;BME280;70055;39.436;-77.514;2023-08-01T00:49:22;99584.91;;;20.27;41.54
80693;BME280;70055;39.436;-77.514;2023-08-01T00:51:50;99587.71;;;20.34;41.40
80693;BME280;70055;39.436;-77.514;2023-08-01T00:54:18;99592.00;;;20.32;41.48
80693;BME280;70055;39.436;-77.514;2023-08-01T00:56:46;99595.46;;;20.01;41.09
80693;BME280;70055;39.436;-77.514;2023-08-01T00:59:16;99591.98;;;21.05;39.26
80693;BME280;70055;39.436;-77.514;2023-08-01T01:01:45;99595.63;;;19.89;39.43
80693;BME280;70055;39.436;-77.514;2023-08-01T01:04:13;99601.05;;;19.58;40.17
80693;BME280;70055;39.436;-77.514;2023-08-01T01:06:57;99607.39;;;20.03;39.53
80693;BME280;70055;39.436;-77.514;2023-08-01T01:09:29;99612.62;;;19.85;39.25
80693;BME280;70055;39.436;-77.514;2023-08-01T01:11:58;99613.77;;;20.10;38.94
80693;BME280;70055;39.436;-77.514;2023-08-01T01:14:26;99615.00;;;19.84;40.81
80693;BME280;70055;39.436;-77.514;2023-08-01T01:16:55;99618.04;;;20.35;40.16
80693;BME280;70055;39.436;-77.514;2023-08-01T01:19:23;99622.15;;;20.01;40.27
80693;BME280;70055;39.436;-77.514;2023-08-01T01:21:51;99625.59;;;19.64;40.84
80693;BME280;70055;39.436;-77.514;2023-08-01T01:24:22;99628.19;;;19.46;41.13
80693;BME280;70055;39.436;-77.514;2023-08-01T01:26:52;99630.50;;;19.39;41.94
80693;BME280;70055;39.436;-77.514;2023-08-01T01:29:23;99631.14;;;19.36;41.49
80693;BME280;70055;39.436;-77.514;2023-08-01T01:31:51;99640.63;;;19.17;42.36
80693;BME280;70055;39.436;-77.514;2023-08-01T01:34:20;99642.81;;;19.35;42.25
80693;BME280;70055;39.436;-77.514;2023-08-01T01:36:49;99642.45;;;18.98;42.45
80693;BME280;70055;39.436;-77.514;2023-08-01T01:39:17;99651.09;;;19.04;42.78
80693;BME280;70055;39.436;-77.514;2023-08-01T01:41:46;99655.09;;;18.87;43.12
80693;BME280;70055;39.436;-77.514;2023-08-01T01:44:13;99663.24;;;18.94;43.53
80693;BME280;70055;39.436;-77.514;2023-08-01T01:46:41;99668.65;;;18.88;43.63
80693;BME280;70055;39.436;-77.514;2023-08-01T01:49:09;99674.18;;;19.05;43.54
80693;BME280;70055;39.436;-77.514;2023-08-01T01:51:38;99682.30;;;19.11;43.34
80693;BME280;70055;39.436;-77.514;2023-08-01T01:54:07;99685.42;;;18.60;43.98
80693;BME280;70055;39.436;-77.514;2023-08-01T01:56:35;99685.99;;;18.38;44.69
80693;BME280;70055;39.436;-77.514;2023-08-01T01:59:03;99684.23;;;18.32;44.73
80693;BME280;70055;39.436;-77.514;2023-08-01T02:01:31;99688.45;;;18.07;45.13
80693;BME280;70055;39.436;-77.514;2023-08-01T02:04:00;99692.16;;;18.21;45.26
80693;BME280;70055;39.436;-77.514;2023-08-01T02:06:28;99692.31;;;17.71;44.36
80693;BME280;70055;39.436;-77.514;2023-08-01T02:08:56;99691.04;;;18.25;43.27
80693;BME280;70055;39.436;-77.514;2023-08-01T02:11:26;99694.95;;;18.54;42.62
80693;BME280;70055;39.436;-77.514;2023-08-01T02:13:54;99696.27;;;18.06;44.06
80693;BME280;70055;39.436;-77.514;2023-08-01T02:16:23;99699.82;;;17.81;46.14
80693;BME280;70055;39.436;-77.514;2023-08-01T02:18:50;99697.29;;;18.54;44.44
80693;BME280;70055;39.436;-77.514;2023-08-01T02:21:19;99698.31;;;18.08;45.00
80693;BME280;70055;39.436;-77.514;2023-08-01T02:23:48;99698.04;;;18.31;44.17
80693;BME280;70055;39.436;-77.514;2023-08-01T02:26:17;99700.66;;;18.39;45.15
80693;BME280;70055;39.436;-77.514;2023-08-01T02:28:46;99703.21;;;17.84;45.58
80693;BME280;70055;39.436;-77.514;2023-08-01T02:31:15;99707.30;;;17.81;46.20
80693;BME280;70055;39.436;-77.514;2023-08-01T02:33:43;99703.04;;;17.66;46.27
80693;BME280;70055;39.436;-77.514;2023-08-01T02:36:13;99714.13;;;16.85;48.80
80693;BME280;70055;39.436;-77.514;2023-08-01T02:38:40;99715.57;;;16.62;49.83
80693;BME280;70055;39.436;-77.514;2023-08-01T02:41:08;99714.48;;;16.78;50.12
80693;BME280;70055;39.436;-77.514;2023-08-01T02:43:36;99713.47;;;17.67;48.43
80693;BME280;70055;39.436;-77.514;2023-08-01T02:46:04;99714.62;;;17.58;48.37
80693;BME280;70055;39.436;-77.514;2023-08-01T02:48:32;99714.46;;;17.79;48.30
80693;BME280;70055;39.436;-77.514;2023-08-01T02:51:00;99714.01;;;17.68;48.61
80693;BME280;70055;39.436;-77.514;2023-08-01T02:53:28;99719.19;;;17.06;50.68
80693;BME280;70055;39.436;-77.514;2023-08-01T02:55:56;99716.25;;;17.25;49.63
80693;BME280;70055;39.436;-77.514;2023-08-01T02:58:25;99718.88;;;17.30;50.18
80693;BME280;70055;39.436;-77.514;2023-08-01T03:00:53;99721.06;;;17.21;50.25
80693;BME280;70055;39.436;-77.514;2023-08-01T03:03:22;99723.36;;;15.90;51.91
80693;BME280;70055;39.436;-77.514;2023-08-01T03:05:50;99725.04;;;16.83;49.76
80693;BME280;70055;39.436;-77.514;2023-08-01T03:08:18;99725.81;;;17.10;48.70
80693;BME280;70055;39.436;-77.514;2023-08-01T03:10:45;99729.67;;;16.97;48.01
80693;BME280;70055;39.436;-77.514;2023-08-01T03:13:14;99731.48;;;18.20;46.25
80693;BME280;70055;39.436;-77.514;2023-08-01T03:15:43;99736.50;;;17.20;47.06
80693;BME280;70055;39.436;-77.514;2023-08-01T03:18:10;99737.87;;;17.13;48.00
80693;BME280;70055;39.436;-77.514;2023-08-01T03:20:38;99737.61;;;17.08;46.49
80693;BME280;70055;39.436;-77.514;2023-08-01T03:23:06;99738.29;;;17.86;46.09
80693;BME280;70055;39.436;-77.514;2023-08-01T03:25:35;99738.62;;;17.59;46.51
80693;BME280;70055;39.436;-77.514;2023-08-01T03:28:03;99737.38;;;16.87;48.79
80693;BME280;70055;39.436;-77.514;2023-08-01T03:30:32;99744.03;;;16.12;51.59
80693;BME280;70055;39.436;-77.514;2023-08-01T03:33:01;99737.40;;;16.94;49.92
80693;BME280;70055;39.436;-77.514;2023-08-01T03:35:29;99736.53;;;17.11;49.85
80693;BME280;70055;39.436;-77.514;2023-08-01T03:37:57;99735.26;;;16.66;50.29
80693;BME280;70055;39.436;-77.514;2023-08-01T03:40:25;99735.11;;;17.12;51.18
80693;BME280;70055;39.436;-77.514;2023-08-01T03:42:53;99741.40;;;17.18;50.70
80693;BME280;70055;39.436;-77.514;2023-08-01T03:45:21;99737.99;;;16.44;51.09
80693;BME280;70055;39.436;-77.514;2023-08-01T03:47:50;99740.11;;;16.85;51.67
80693;BME280;70055;39.436;-77.514;2023-08-01T03:50:18;99741.45;;;17.18;49.67
80693;BME280;70055;39.436;-77.514;2023-08-01T03:52:46;99739.80;;;16.88;50.26
80693;BME280;70055;39.436;-77.514;2023-08-01T03:55:14;99736.43;;;16.59;51.01
80693;BME280;70055;39.436;-77.514;2023-08-01T03:57:43;99740.05;;;17.02;50.91
80693;BME280;70055;39.436;-77.514;2023-08-01T04:00:11;99738.51;;;16.92;50.45
80693;BME280;70055;39.436;-77.514;2023-08-01T04:02:41;99739.01;;;16.74;50.77
80693;BME280;70055;39.436;-77.514;2023-08-01T04:05:10;99740.76;;;16.42;51.34
80693;BME280;70055;39.436;-77.514;2023-08-01T04:07:39;99739.65;;;16.40;51.40
80693;BME280;70055;39.436;-77.514;2023-08-01T04:10:09;99740.83;;;16.55;50.51
80693;BME280;70055;39.436;-77.514;2023-08-01T04:12:38;99741.35;;;16.85;50.45
80693;BME280;70055;39.436;-77.514;2023-08-01T04:15:07;99744.44;;;16.74;50.99
80693;BME280;70055;39.436;-77.514;2023-08-01T04:17:35;99746.44;;;16.63;51.01
80693;BME280;70055;39.436;-77.514;2023-08-01T04:20:03;99747.10;;;16.54;51.67
80693;BME280;70055;39.436;-77.514;2023-08-01T04:22:33;99749.70;;;16.55;51.87
80693;BME280;70055;39.436;-77.514;2023-08-01T04:25:01;99744.51;;;16.61;50.82
80693;BME280;70055;39.436;-77.514;2023-08-01T04:27:29;99742.61;;;16.51;52.14
80693;BME280;70055;39.436;-77.514;2023-08-01T04:29:59;99739.59;;;16.78;50.60
80693;BME280;70055;39.436;-77.514;2023-08-01T04:32:27;99739.72;;;16.69;50.75
80693;BME280;70055;39.436;-77.514;2023-08-01T04:34:55;99739.88;;;16.35;50.92
80693;BME280;70055;39.436;-77.514;2023-08-01T04:37:23;99737.18;;;16.58;50.83
80693;BME280;70055;39.436;-77.514;2023-08-01T04:39:51;99740.49;;;16.29;52.04
80693;BME280;70055;39.436;-77.514;2023-08-01T04:42:19;99743.07;;;16.53;50.85
80693;BME280;70055;39.436;-77.514;2023-08-01T04:44:47;99738.50;;;16.77;50.42
80693;BME280;70055;39.436;-77.514;2023-08-01T04:47:15;99739.61;;;16.96;51.33
80693;BME280;70055;39.436;-77.514;2023-08-01T04:49:44;99740.89;;;16.53;51.94
80693;BME280;70055;39.436;-77.514;2023-08-01T04:52:13;99740.11;;;16.41;51.88
80693;BME280;70055;39.436;-77.514;2023-08-01T04:54:42;99739.43;;;16.85;51.36
80693;BME280;70055;39.436;-77.514;2023-08-01T04:57:10;99742.43;;;16.27;51.69
80693;BME280;70055;39.436;-77.514;2023-08-01T04:59:39;99741.01;;;16.46;52.06
80693;BME280;70055;39.436;-77.514;2023-08-01T05:02:07;99741.48;;;16.48;51.13
80693;BME280;70055;39.436;-77.514;2023-08-01T05:04:34;99739.68;;;16.51;51.65
80693;BME280;70055;39.436;-77.514;2023-08-01T05:07:03;99741.92;;;15.63;53.05
80693;BME280;70055;39.436;-77.514;2023-08-01T05:09:32;99741.13;;;16.21;52.61
80693;BME280;70055;39.436;-77.514;2023-08-01T05:12:00;99744.35;;;16.30;51.73
80693;BME280;70055;39.436;-77.514;2023-08-01T05:14:28;99743.59;;;16.38;51.85
80693;BME280;70055;39.436;-77.514;2023-08-01T05:16:56;99740.21;;;16.41;51.68
80693;BME280;70055;39.436;-77.514;2023-08-01T05:19:24;99739.77;;;16.30;52.46
80693;BME280;70055;39.436;-77.514;2023-08-01T05:21:52;99739.29;;;15.36;53.74
80693;BME280;70055;39.436;-77.514;2023-08-01T05:24:21;99737.81;;;15.86;52.95
80693;BME280;70055;39.436;-77.514;2023-08-01T05:26:49;99733.93;;;16.58;52.08
80693;BME280;70055;39.436;-77.514;2023-08-01T05:29:16;99731.58;;;16.41;52.66
80693;BME280;70055;39.436;-77.514;2023-08-01T05:31:44;99737.49;;;16.09;52.83
80693;BME280;70055;39.436;-77.514;2023-08-01T05:34:13;99739.61;;;16.27;53.15
80693;BME280;70055;39.436;-77.514;2023-08-01T05:36:41;99743.52;;;16.27;53.34
80693;BME280;70055;39.436;-77.514;2023-08-01T05:39:09;99739.66;;;16.16;53.00
80693;BME280;70055;39.436;-77.514;2023-08-01T05:41:37;99741.73;;;16.37;53.22
80693;BME280;70055;39.436;-77.514;2023-08-01T05:44:06;99737.05;;;16.29;53.28
80693;BME280;70055;39.436;-77.514;2023-08-01T05:46:33;99736.70;;;15.75;54.57
80693;BME280;70055;39.436;-77.514;2023-08-01T05:49:02;99735.37;;;15.93;54.01
80693;BME280;70055;39.436;-77.514;2023-08-01T05:51:30;99733.41;;;15.79;53.41
80693;BME280;70055;39.436;-77.514;2023-08-01T05:53:58;99731.45;;;16.37;52.63
80693;BME280;70055;39.436;-77.514;2023-08-01T05:56:26;99732.23;;;16.05;52.42
80693;BME280;70055;39.436;-77.514;2023-08-01T05:58:55;99733.62;;;15.96;52.56
80693;BME280;70055;39.436;-77.514;2023-08-01T06:01:23;99732.83;;;16.15;52.80
80693;BME280;70055;39.436;-77.514;2023-08-01T06:03:51;99733.00;;;16.16;52.71
80693;BME280;70055;39.436;-77.514;2023-08-01T06:06:19;99728.59;;;16.56;52.48
80693;BME280;70055;39.436;-77.514;2023-08-01T06:08:48;99726.68;;;16.08;52.85
80693;BME280;70055;39.436;-77.514;2023-08-01T06:11:17;99727.25;;;15.94;53.18
80693;BME280;70055;39.436;-77.514;2023-08-01T06:13:45;99725.27;;;15.70;53.80
80693;BME280;70055;39.436;-77.514;2023-08-01T06:16:13;99729.09;;;16.14;53.17
80693;BME280;70055;39.436;-77.514;2023-08-01T06:18:41;99725.24;;;16.05;53.98
80693;BME280;70055;39.436;-77.514;2023-08-01T06:21:09;99730.20;;;16.24;53.42
80693;BME280;70055;39.436;-77.514;2023-08-01T06:23:37;99734.61;;;15.24;55.43
80693;BME280;70055;39.436;-77.514;2023-08-01T06:26:05;99730.74;;;15.59;54.67
80693;BME280;70055;39.436;-77.514;2023-08-01T06:28:33;99727.63;;;15.66;53.66
80693;BME280;70055;39.436;-77.514;2023-08-01T06:31:02;99727.64;;;15.64;54.77
80693;BME280;70055;39.436;-77.514;2023-08-01T06:33:30;99728.75;;;16.49;52.79
80693;BME280;70055;39.436;-77.514;2023-08-01T06:35:58;99728.31;;;15.96;53.18
80693;BME280;70055;39.436;-77.514;2023-08-01T06:38:26;99729.38;;;16.30;54.90
80693;BME280;70055;39.436;-77.514;2023-08-01T06:40:54;99726.19;;;17.00;51.89
80693;BME280;70055;39.436;-77.514;2023-08-01T06:43:22;99725.57;;;16.38;52.26
80693;BME280;70055;39.436;-77.514;2023-08-01T06:45:50;99725.82;;;16.54;52.75
80693;BME280;70055;39.436;-77.514;2023-08-01T06:48:18;99724.51;;;16.45;52.09
80693;BME280;70055;39.436;-77.514;2023-08-01T06:50:46;99724.80;;;16.97;51.00
80693;BME280;70055;39.436;-77.514;2023-08-01T06:53:14;99723.58;;;18.27;47.82
80693;BME280;70055;39.436;-77.514;2023-08-01T06:55:43;99723.34;;;18.27;47.40
80693;BME280;70055;39.436;-77.514;2023-08-01T06:58:11;99721.77;;;18.18;46.96
80693;BME280;70055;39.436;-77.514;2023-08-01T07:00:38;99720.70;;;18.15;46.75
80693;BME280;70055;39.436;-77.514;2023-08-01T07:03:07;99718.91;;;18.14;46.61
80693;BME280;70055;39.436;-77.514;2023-08-01T07:05:35;99724.75;;;18.06;46.65
80693;BME280;70055;39.436;-77.514;2023-08-01T07:08:04;99729.43;;;18.52;46.20
80693;BME280;70055;39.436;-77.514;2023-08-01T07:10:35;99731.74;;;17.31;48.40
80693;BME280;70055;39.436;-77.514;2023-08-01T07:13:03;99735.97;;;17.74;47.99
80693;BME280;70055;39.436;-77.514;2023-08-01T07:15:32;99739.35;;;18.12;47.56
80693;BME280;70055;39.436;-77.514;2023-08-01T07:18:00;99739.24;;;18.32;46.05
80693;BME280;70055;39.436;-77.514;2023-08-01T07:20:28;99741.64;;;17.77;47.95
80693;BME280;70055;39.436;-77.514;2023-08-01T07:22:56;99739.27;;;17.97;48.11
80693;BME280;70055;39.436;-77.514;2023-08-01T07:25:24;99743.73;;;17.53;48.58
80693;BME280;70055;39.436;-77.514;2023-08-01T07:27:51;99746.74;;;15.76;52.78
80693;BME280;70055;39.436;-77.514;2023-08-01T07:30:20;99753.38;;;16.15;53.52
80693;BME280;70055;39.436;-77.514;2023-08-01T07:32:48;99749.16;;;15.03;55.24
80693;BME280;70055;39.436;-77.514;2023-08-01T07:35:16;99744.03;;;16.76;50.77
80693;BME280;70055;39.436;-77.514;2023-08-01T07:37:44;99741.64;;;17.29;49.61
80693;BME280;70055;39.436;-77.514;2023-08-01T07:40:12;99745.74;;;16.07;53.34
80693;BME280;70055;39.436;-77.514;2023-08-01T07:42:40;99746.73;;;15.38;54.43
80693;BME280;70055;39.436;-77.514;2023-08-01T07:45:09;99748.07;;;15.56;55.71
80693;BME280;70055;39.436;-77.514;2023-08-01T07:47:37;99749.16;;;16.27;53.75
80693;BME280;70055;39.436;-77.514;2023-08-01T07:50:06;99755.76;;;15.97;54.25
80693;BME280;70055;39.436;-77.514;2023-08-01T07:52:35;99761.80;;;15.57;54.84
80693;BME280;70055;39.436;-77.514;2023-08-01T07:55:03;99764.79;;;16.10;53.85
80693;BME280;70055;39.436;-77.514;2023-08-01T07:57:31;99758.39;;;16.50;52.85
80693;BME280;70055;39.436;-77.514;2023-08-01T08:00:00;99767.76;;;15.77;55.14
80693;BME280;70055;39.436;-77.514;2023-08-01T08:02:28;99769.36;;;15.81;54.66
80693;BME280;70055;39.436;-77.514;2023-08-01T08:04:56;99770.82;;;15.47;55.09
80693;BME280;70055;39.436;-77.514;2023-08-01T08:07:24;99774.99;;;16.27;53.51
80693;BME280;70055;39.436;-77.514;2023-08-01T08:09:52;99772.66;;;16.10;53.05
80693;BME280;70055;39.436;-77.514;2023-08-01T08:12:20;99771.44;;;16.48;52.39
80693;BME280;70055;39.436;-77.514;2023-08-01T08:14:48;99772.70;;;16.40;52.22
80693;BME280;70055;39.436;-77.514;2023-08-01T08:17:16;99785.78;;;14.93;55.54
80693;BME280;70055;39.436;-77.514;2023-08-01T08:19:44;99775.73;;;15.81;53.44
80693;BME280;70055;39.436;-77.514;2023-08-01T08:22:12;99778.12;;;15.63;53.02
80693;BME280;70055;39.436;-77.514;2023-08-01T08:24:40;99784.56;;;14.75;54.93
80693;BME280;70055;39.436;-77.514;2023-08-01T08:27:08;99776.62;;;16.06;51.99
80693;BME280;70055;39.436;-77.514;2023-08-01T08:29:36;99776.78;;;16.20;52.11
80693;BME280;70055;39.436;-77.514;2023-08-01T08:32:06;99776.55;;;16.25;51.77
80693;BME280;70055;39.436;-77.514;2023-08-01T08:34:34;99782.05;;;16.81;50.65
80693;BME280;70055;39.436;-77.514;2023-08-01T08:37:02;99786.74;;;16.34;50.36
80693;BME280;70055;39.436;-77.514;2023-08-01T08:39:30;99781.79;;;16.94;49.64
80693;BME280;70055;39.436;-77.514;2023-08-01T08:41:58;99788.60;;;16.41;50.39
80693;BME280;70055;39.436;-77.514;2023-08-01T08:44:26;99790.42;;;16.66;50.46
80693;BME280;70055;39.436;-77.514;2023-08-01T08:46:54;99790.80;;;16.78;49.08
80693;BME280;70055;39.436;-77.514;2023-08-01T08:49:25;99793.77;;;16.88;49.35
80693;BME280;70055;39.436;-77.514;2023-08-01T08:51:54;99794.29;;;18.16;46.40
80693;BME280;70055;39.436;-77.514;2023-08-01T08:54:23;99799.54;;;17.51;47.11
80693;BME280;70055;39.436;-77.514;2023-08-01T08:56:52;99796.24;;;17.79;46.59
80693;BME280;70055;39.436;-77.514;2023-08-01T08:59:21;99804.57;;;16.95;49.12
80693;BME280;70055;39.436;-77.514;2023-08-01T09:01:50;99808.58;;;16.64;50.45
80693;BME280;70055;39.436;-77.514;2023-08-01T09:04:17;99812.05;;;16.96;50.85
80693;BME280;70055;39.436;-77.514;2023-08-01T09:06:49;99807.76;;;17.13;48.99
80693;BME280;70055;39.436;-77.514;2023-08-01T09:09:18;99809.93;;;17.56;49.35
80693;BME280;70055;39.436;-77.514;2023-08-01T09:11:47;99821.70;;;15.63;52.70
80693;BME280;70055;39.436;-77.514;2023-08-01T09:14:17;99826.14;;;15.45;54.30
80693;BME280;70055;39.436;-77.514;2023-08-01T09:16:46;99827.30;;;15.73;52.20
80693;BME280;70055;39.436;-77.514;2023-08-01T09:19:18;99827.06;;;16.41;51.78
80693;BME280;70055;39.436;-77.514;2023-08-01T09:21:47;99833.76;;;15.67;52.29
80693;BME280;70055;39.436;-77.514;2023-08-01T09:24:17;99835.03;;;16.61;51.77
80693;BME280;70055;39.436;-77.514;2023-08-01T09:26:48;99830.24;;;16.59;51.04
80693;BME280;70055;39.436;-77.514;2023-08-01T09:29:17;99834.79;;;16.36;51.82
80693;BME280;70055;39.436;-77.514;2023-08-01T09:31:45;99840.15;;;15.17;53.62
80693;BME280;70055;39.436;-77.514;2023-08-01T09:34:20;99839.60;;;15.71;53.15
80693;BME280;70055;39.436;-77.514;2023-08-01T09:36:49;99838.94;;;15.95;52.15
80693;BME280;70055;39.436;-77.514;2023-08-01T09:39:19;99837.48;;;15.68;52.25
80693;BME280;70055;39.436;-77.514;2023-08-01T09:41:55;99840.89;;;16.03;52.27
80693;BME280;70055;39.436;-77.514;2023-08-01T09:44:23;99840.76;;;15.62;53.12
80693;BME280;70055;39.436;-77.514;2023-08-01T09:46:56;99840.66;;;15.85;53.25
80693;BME280;70055;39.436;-77.514;2023-08-01T09:49:24;99837.62;;;15.97;52.98
80693;BME280;70055;39.436;-77.514;2023-08-01T09:51:52;99840.03;;;15.79;52.77
80693;BME280;70055;39.436;-77.514;2023-08-01T09:54:21;99846.23;;;15.57;53.41
80693;BME280;70055;39.436;-77.514;2023-08-01T09:56:51;99854.22;;;14.95;55.49
80693;BME280;70055;39.436;-77.514;2023-08-01T09:59:20;99852.93;;;15.38;54.40
80693;BME280;70055;39.436;-77.514;2023-08-01T10:01:50;99855.65;;;15.65;53.41
80693;BME280;70055;39.436;-77.514;2023-08-01T10:04:20;99859.39;;;15.44;54.09
80693;BME280;70055;39.436;-77.514;2023-08-01T10:06:54;99862.00;;;15.31;53.70
80693;BME280;70055;39.436;-77.514;2023-08-01T10:09:25;99865.90;;;14.50;56.70
80693;BME280;70055;39.436;-77.514;2023-08-01T10:11:54;99869.68;;;14.75;55.58
80693;BME280;70055;39.436;-77.514;2023-08-01T10:14:23;99868.74;;;15.40;54.61
80693;BME280;70055;39.436;-77.514;2023-08-01T10:16:52;99874.34;;;15.31;54.68
80693;BME280;70055;39.436;-77.514;2023-08-01T10:19:22;99877.94;;;15.37;54.57
80693;BME280;70055;39.436;-77.514;2023-08-01T10:21:51;99884.46;;;14.08;57.63
80693;BME280;70055;39.436;-77.514;2023-08-01T10:24:20;99887.67;;;14.95;55.70
80693;BME280;70055;39.436;-77.514;2023-08-01T10:26:48;99889.07;;;15.16;55.18
80693;BME280;70055;39.436;-77.514;2023-08-01T10:29:16;99894.91;;;14.84;55.95
80693;BME280;70055;39.436;-77.514;2023-08-01T10:31:51;99898.69;;;14.13;57.81
80693;BME280;70055;39.436;-77.514;2023-08-01T10:34:20;99909.67;;;14.88;55.86
80693;BME280;70055;39.436;-77.514;2023-08-01T10:36:54;99910.15;;;14.63;56.63
80693;BME280;70055;39.436;-77.514;2023-08-01T10:39:23;99920.04;;;15.00;55.90
80693;BME280;70055;39.436;-77.514;2023-08-01T10:42:01;99924.73;;;15.48;54.53
80693;BME280;70055;39.436;-77.514;2023-08-01T10:44:30;99929.17;;;15.30;55.15
80693;BME280;70055;39.436;-77.514;2023-08-01T10:47:00;99933.52;;;15.49;54.79
80693;BME280;70055;39.436;-77.514;2023-08-01T10:49:37;99939.23;;;15.68;54.55
80693;BME280;70055;39.436;-77.514;2023-08-01T10:52:16;99941.05;;;15.37;55.70
80693;BME280;70055;39.436;-77.514;2023-08-01T10:54:46;99943.66;;;15.18;55.94
80693;BME280;70055;39.436;-77.514;2023-08-01T10:57:16;99948.96;;;15.58;55.56
80693;BME280;70055;39.436;-77.514;2023-08-01T10:59:46;99951.32;;;15.80;55.34
80693;BME280;70055;39.436;-77.514;2023-08-01T11:02:20;99953.18;;;15.67;55.51
80693;BME280;70055;39.436;-77.514;2023-08-01T11:04:57;99963.95;;;15.09;57.35
80693;BME280;70055;39.436;-77.514;2023-08-01T11:07:25;99973.78;;;16.01;55.62
80693;BME280;70055;39.436;-77.514;2023-08-01T11:10:11;99980.22;;;16.06;54.98
80693;BME280;70055;39.436;-77.514;2023-08-01T11:12:41;99988.17;;;16.41;54.39
80693;BME280;70055;39.436;-77.514;2023-08-01T11:15:11;99992.07;;;16.82;53.93
80693;BME280;70055;39.436;-77.514;2023-08-01T11:17:40;99991.73;;;16.91;54.90
80693;BME280;70055;39.436;-77.514;2023-08-01T11:20:10;99993.65;;;16.08;56.85
80693;BME280;70055;39.436;-77.514;2023-08-01T11:22:50;99988.13;;;16.80;55.52
80693;BME280;70055;39.436;-77.514;2023-08-01T11:25:19;99987.37;;;17.06;55.48
80693;BME280;70055;39.436;-77.514;2023-08-01T11:27:47;99986.19;;;16.83;54.57
80693;BME280;70055;39.436;-77.514;2023-08-01T11:30:15;99993.71;;;16.16;56.82
80693;BME280;70055;39.436;-77.514;2023-08-01T11:32:43;99985.52;;;16.77;55.89
80693;BME280;70055;39.436;-77.514;2023-08-01T11:35:17;99984.88;;;16.83;55.24
80693;BME280;70055;39.436;-77.514;2023-08-01T11:37:46;99984.04;;;16.47;56.01
80693;BME280;70055;39.436;-77.514;2023-08-01T11:40:15;99985.95;;;17.06;54.48
80693;BME280;70055;39.436;-77.514;2023-08-01T11:42:43;99984.28;;;18.09;51.57
80693;BME280;70055;39.436;-77.514;2023-08-01T11:45:13;99986.80;;;17.59;51.13
80693;BME280;70055;39.436;-77.514;2023-08-01T11:47:46;99984.59;;;18.60;50.81
80693;BME280;70055;39.436;-77.514;2023-08-01T11:50:19;99990.08;;;17.70;53.96
80693;BME280;70055;39.436;-77.514;2023-08-01T11:52:47;99992.43;;;18.04;52.83
80693;BME280;70055;39.436;-77.514;2023-08-01T11:55:20;99994.03;;;18.93;51.68
80693;BME280;70055;39.436;-77.514;2023-08-01T11:57:56;99994.93;;;18.35;52.51
80693;BME280;70055;39.436;-77.514;2023-08-01T12:00:26;99997.44;;;17.76;50.94
80693;BME280;70055;39.436;-77.514;2023-08-01T12:03:04;99998.12;;;18.46;49.20
80693;BME280;70055;39.436;-77.514;2023-08-01T12:05:33;99995.77;;;18.96;48.28
80693;BME280;70055;39.436;-77.514;2023-08-01T12:08:11;99997.95;;;18.80;47.56
80693;BME280;70055;39.436;-77.514;2023-08-01T12:10:41;99996.85;;;19.75;45.82
80693;BME280;70055;39.436;-77.514;2023-08-01T12:13:21;99999.69;;;20.64;45.16
80693;BME280;70055;39.436;-77.514;2023-08-01T12:15:49;100003.72;;;19.87;44.52
80693;BME280;70055;39.436;-77.514;2023-08-01T12:18:21;100002.55;;;21.69;42.74
80693;BME280;70055;39.436;-77.514;2023-08-01T12:20:49;100007.59;;;20.62;42.76
80693;BME280;70055;39.436;-77.514;2023-08-01T12:23:17;100004.09;;;21.21;42.53
80693;BME280;70055;39.436;-77.514;2023-08-01T12:25:47;100007.97;;;20.31;45.06
80693;BME280;70055;39.436;-77.514;2023-08-01T12:28:17;100005.17;;;21.24;44.31
80693;BME280;70055;39.436;-77.514;2023-08-01T12:30:45;100009.21;;;20.60;42.57
80693;BME280;70055;39.436;-77.514;2023-08-01T12:33:13;100014.02;;;19.75;45.85
80693;BME280;70055;39.436;-77.514;2023-08-01T12:35:41;100017.31;;;20.06;45.67
80693;BME280;70055;39.436;-77.514;2023-08-01T12:38:10;100010.40;;;21.95;45.38
80693;BME280;70055;39.436;-77.514;2023-08-01T12:40:38;100019.17;;;19.74;45.52
80693;BME280;70055;39.436;-77.514;2023-08-01T12:43:08;100023.74;;;18.48;48.45
80693;BME280;70055;39.436;-77.514;2023-08-01T12:45:36;100023.79;;;18.17;51.60
80693;BME280;70055;39.436;-77.514;2023-08-01T12:48:06;100023.51;;;19.45;50.06
80693;BME280;70055;39.436;-77.514;2023-08-01T12:50:34;100019.86;;;19.36;49.75